createdAt,value
2024-04-23T00:00:21.301Z,5.75
2024-04-23T00:02:48.555Z,5.70
2024-04-23T00:05:18.344Z,5.70
2024-04-23T00:07:45.550Z,5.63
2024-04-23T00:10:18.002Z,6.78
2024-04-23T00:12:45.163Z,5.90
2024-04-23T00:15:14.923Z,6.05
2024-04-23T00:17:42.169Z,6.95
2024-04-23T00:20:12.743Z,7.00
2024-04-23T00:22:39.969Z,6.72
2024-04-23T00:25:10.396Z,6.70
2024-04-23T00:27:40.146Z,7.15
2024-04-23T00:30:11.319Z,7.43
2024-04-23T00:32:38.592Z,6.57
2024-04-23T00:35:08.735Z,7.10
2024-04-23T00:37:35.962Z,6.30
2024-04-23T00:40:05.855Z,6.43
2024-04-23T00:42:32.989Z,6.40
2024-04-23T00:45:06.132Z,7.68
2024-04-23T00:47:33.338Z,7.93
2024-04-23T00:50:03.618Z,8.05
2024-04-23T00:52:31.171Z,8.40
2024-04-23T00:55:02.147Z,7.28
2024-04-23T00:57:29.320Z,7.60
2024-04-23T00:59:59.145Z,8.75
2024-04-23T01:02:29.519Z,9.10
2024-04-23T01:04:59.618Z,8.52
2024-04-23T01:07:26.848Z,8.80
2024-04-23T01:09:56.770Z,8.38
2024-04-23T01:12:24.035Z,10.13
2024-04-23T01:14:55.363Z,9.07
2024-04-23T01:17:24.533Z,9.52
2024-04-23T01:20:01.571Z,9.48
2024-04-23T01:22:33.641Z,9.32
2024-04-23T01:25:10.167Z,9.48
2024-04-23T01:27:41.025Z,8.25
2024-04-23T01:30:12.269Z,8.43
2024-04-23T01:32:41.957Z,9.43
2024-04-23T01:35:13.614Z,9.77
2024-04-23T01:37:43.968Z,9.05
2024-04-23T01:40:14.791Z,9.68
2024-04-23T01:42:45.050Z,9.88
2024-04-23T01:45:17.394Z,10.20
2024-04-23T01:47:45.798Z,9.70
2024-04-23T01:50:15.828Z,10.30
2024-04-23T01:52:43.456Z,10.18
2024-04-23T01:55:13.446Z,9.23
2024-04-23T01:57:40.770Z,9.52
2024-04-23T02:00:16.982Z,10.43
2024-04-23T02:02:46.711Z,9.77
2024-04-23T02:05:17.532Z,10.98
2024-04-23T02:07:45.387Z,10.55
2024-04-23T02:10:15.633Z,10.48
2024-04-23T02:12:42.793Z,10.40
2024-04-23T02:15:15.174Z,11.60
2024-04-23T02:17:42.445Z,11.95
2024-04-23T02:20:13.016Z,11.95
2024-04-23T02:22:40.236Z,11.95
2024-04-23T02:25:10.039Z,11.60
2024-04-23T02:27:37.213Z,11.05
2024-04-23T02:30:07.641Z,12.43
2024-04-23T02:32:37.524Z,12.73
2024-04-23T02:35:08.013Z,12.77
2024-04-23T02:37:35.237Z,13.20
2024-04-23T02:40:06.969Z,15.40
2024-04-23T02:42:34.517Z,15.23
2024-04-23T02:45:04.327Z,15.43
2024-04-23T02:47:31.567Z,14.55
2024-04-23T02:50:04.721Z,15.35
2024-04-23T02:52:31.875Z,15.38
2024-04-23T02:55:02.195Z,15.82
2024-04-23T02:57:29.316Z,17.48
2024-04-23T02:59:59.112Z,15.68
2024-04-23T03:02:26.374Z,16.67
2024-04-23T03:04:56.403Z,17.70
2024-04-23T03:07:26.199Z,16.67
2024-04-23T03:09:55.979Z,16.60
2024-04-23T03:12:23.159Z,16.27
2024-04-23T03:14:52.995Z,16.90
2024-04-23T03:17:20.150Z,16.63
2024-04-23T03:19:49.963Z,17.30
2024-04-23T03:22:17.168Z,18.90
2024-04-23T03:24:49.553Z,17.08
2024-04-23T03:27:16.747Z,17.15
2024-04-23T03:29:46.530Z,19.92
2024-04-23T03:32:13.778Z,17.35
2024-04-23T03:34:43.651Z,18.58
2024-04-23T03:37:13.448Z,19.27
2024-04-23T03:39:43.184Z,18.83
2024-04-23T03:42:12.979Z,18.88
2024-04-23T03:44:45.655Z,18.95
2024-04-23T03:47:17.457Z,19.13
2024-04-23T03:49:46.046Z,19.70
2024-04-23T03:52:17.509Z,18.83
2024-04-23T03:54:46.157Z,20.15
2024-04-23T03:57:21.159Z,18.65
2024-04-23T03:59:50.048Z,19.40
2024-04-23T04:02:43.855Z,18.38
2024-04-23T04:05:29.490Z,19.88
2024-04-23T04:07:59.273Z,18.67
2024-04-23T04:10:29.108Z,18.55
2024-04-23T04:13:12.911Z,20.98
2024-04-23T04:15:51.426Z,18.98
2024-04-23T04:18:18.958Z,19.05
2024-04-23T04:20:49.101Z,20.10
2024-04-23T04:23:16.265Z,20.25
2024-04-23T04:25:46.120Z,21.40
2024-04-23T04:28:15.953Z,21.55
2024-04-23T04:30:45.690Z,21.52
2024-04-23T04:33:12.904Z,22.00
2024-04-23T04:35:42.684Z,19.05
2024-04-23T04:38:09.883Z,18.23
2024-04-23T04:40:39.725Z,17.38
2024-04-23T04:43:06.879Z,17.67
2024-04-23T04:45:39.260Z,15.77
2024-04-23T04:48:07.223Z,20.45
2024-04-23T04:50:37.088Z,19.48
2024-04-23T04:53:04.449Z,18.92
2024-04-23T04:55:34.519Z,21.13
2024-04-23T04:58:01.682Z,18.50
2024-04-23T05:00:31.425Z,20.42
2024-04-23T05:03:01.286Z,18.98
2024-04-23T05:05:31.041Z,23.77
2024-04-23T05:07:58.395Z,22.38
2024-04-23T05:10:28.241Z,21.17
2024-04-23T05:12:55.405Z,21.90
2024-04-23T05:15:25.164Z,21.95
2024-04-23T05:17:52.339Z,23.27
2024-04-23T05:20:24.783Z,20.33
2024-04-23T05:22:51.957Z,20.58
2024-04-23T05:25:22.471Z,21.75
2024-04-23T05:27:50.184Z,23.17
2024-04-23T05:30:43.016Z,24.33
2024-04-23T05:33:10.334Z,21.15
2024-04-23T05:35:42.969Z,19.88
2024-04-23T05:38:15.113Z,18.63
2024-04-23T05:43:16.426Z,23.33
2024-04-23T05:45:46.220Z,23.98
2024-04-23T05:48:53.578Z,29.35
2024-04-23T05:51:57.954Z,18.02
2024-04-23T05:55:05.011Z,20.50
2024-04-23T05:57:34.787Z,21.27
2024-04-23T06:00:04.924Z,20.60
2024-04-23T06:02:32.084Z,20.08
2024-04-23T06:05:01.944Z,17.95
2024-04-23T06:07:29.382Z,18.02
2024-04-23T06:09:59.127Z,19.58
2024-04-23T06:12:28.940Z,18.85
2024-04-23T06:14:58.711Z,18.33
2024-04-23T06:17:35.957Z,17.65
2024-04-23T06:20:12.534Z,17.77
2024-04-23T06:22:40.840Z,17.92
2024-04-23T06:25:11.684Z,19.52
2024-04-23T06:27:40.351Z,19.95
2024-04-23T06:30:16.586Z,20.05
2024-04-23T06:32:44.185Z,19.88
2024-04-23T06:35:15.526Z,21.40
2024-04-23T06:37:45.531Z,22.35
2024-04-23T06:40:12.918Z,20.77
2024-04-23T06:42:42.734Z,19.70
2024-04-23T06:45:12.567Z,18.25
2024-04-23T06:47:42.356Z,17.20
2024-04-23T06:50:09.845Z,19.50
2024-04-23T06:52:39.626Z,18.45
2024-04-23T06:55:06.949Z,19.05
2024-04-23T06:57:38.810Z,19.23
2024-04-23T07:00:09.670Z,19.42
2024-04-23T07:02:39.528Z,18.85
2024-04-23T07:05:10.514Z,18.77
2024-04-23T07:07:37.782Z,19.00
2024-04-23T07:10:09.225Z,17.38
2024-04-23T07:12:36.435Z,17.73
2024-04-23T07:15:06.516Z,19.02
2024-04-23T07:17:33.894Z,19.52
2024-04-23T07:20:07.099Z,19.08
2024-04-23T07:22:34.302Z,23.38
2024-04-23T07:25:04.184Z,17.58
2024-04-23T07:27:31.383Z,17.83
2024-04-23T07:30:01.144Z,19.45
2024-04-23T07:32:28.432Z,17.63
2024-04-23T07:34:58.783Z,17.77
2024-04-23T07:37:29.126Z,16.85
2024-04-23T07:39:58.964Z,16.80
2024-04-23T07:42:26.100Z,17.83
2024-04-23T07:44:55.895Z,17.10
2024-04-23T07:47:23.106Z,17.13
2024-04-23T07:49:53.141Z,17.10
2024-04-23T07:52:20.309Z,16.63
2024-04-23T07:54:52.713Z,16.95
2024-04-23T07:57:20.454Z,17.30
2024-04-23T07:59:50.887Z,16.15
2024-04-23T08:02:18.515Z,15.88
2024-04-23T08:04:48.400Z,15.27
2024-04-23T08:07:15.631Z,16.73
2024-04-23T08:09:45.398Z,13.02
2024-04-23T08:12:15.202Z,15.48
2024-04-23T08:14:45.017Z,14.98
2024-04-23T08:17:12.314Z,14.73
2024-04-23T08:19:42.204Z,14.10
2024-04-23T08:22:09.354Z,12.20
2024-04-23T08:24:39.156Z,13.98
2024-04-23T08:27:06.564Z,14.25
2024-04-23T08:29:38.942Z,12.02
2024-04-23T08:32:06.516Z,12.18
2024-04-23T08:34:36.307Z,12.23
2024-04-23T08:37:07.327Z,11.40
2024-04-23T08:39:37.174Z,11.38
2024-04-23T08:42:12.605Z,12.50
2024-04-23T08:44:45.368Z,11.35
2024-04-23T08:47:15.714Z,11.35
2024-04-23T08:49:46.080Z,10.48
2024-04-23T08:52:16.169Z,10.98
2024-04-23T08:54:46.368Z,12.43
2024-04-23T08:57:15.091Z,11.30
2024-04-23T08:59:49.748Z,10.82
2024-04-23T09:02:29.341Z,12.18
2024-04-23T09:05:01.334Z,11.20
2024-04-23T09:07:33.090Z,11.00
2024-04-23T09:10:04.165Z,10.02
2024-04-23T09:12:32.271Z,9.18
2024-04-23T09:15:05.371Z,10.82
2024-04-23T09:17:34.785Z,10.45
2024-04-23T09:20:06.320Z,9.85
2024-04-23T09:22:33.690Z,10.25
2024-04-23T09:25:06.787Z,9.45
2024-04-23T09:27:38.126Z,8.98
2024-04-23T09:30:13.485Z,10.05
2024-04-23T09:32:41.568Z,9.38
2024-04-23T09:35:18.818Z,8.77
2024-04-23T09:37:50.371Z,7.03
2024-04-23T09:40:20.322Z,8.20
2024-04-23T09:42:53.926Z,8.02
2024-04-23T09:45:29.730Z,7.40
2024-04-23T09:47:57.086Z,7.82
2024-04-23T09:50:31.665Z,8.15
2024-04-23T09:53:02.629Z,7.68
2024-04-23T09:55:32.626Z,7.40
2024-04-23T09:57:59.788Z,8.23
2024-04-23T10:00:34.139Z,6.93
2024-04-23T10:03:15.268Z,7.13
2024-04-23T10:05:50.699Z,6.78
2024-04-23T10:08:25.330Z,6.55
2024-04-23T10:10:58.817Z,6.80
2024-04-23T10:13:32.853Z,7.05
2024-04-23T10:16:11.434Z,7.82
2024-04-23T10:18:44.984Z,7.13
2024-04-23T10:21:18.001Z,7.70
2024-04-23T10:23:45.833Z,7.77
2024-04-23T10:26:15.998Z,7.38
2024-04-23T10:28:43.957Z,5.55
2024-04-23T10:31:17.230Z,6.88
2024-04-23T10:33:49.258Z,7.72
2024-04-23T10:36:21.172Z,6.13
2024-04-23T10:38:51.733Z,5.97
2024-04-23T10:41:22.802Z,6.65
2024-04-23T10:43:51.111Z,6.57
2024-04-23T10:46:23.860Z,5.75
2024-04-23T10:48:55.273Z,6.50
2024-04-23T10:51:26.982Z,6.38
2024-04-23T10:53:54.195Z,6.45
2024-04-23T10:56:27.945Z,6.20
2024-04-23T10:59:05.367Z,6.50
2024-04-23T11:01:38.089Z,5.90
2024-04-23T11:04:07.178Z,7.40
2024-04-23T11:06:40.160Z,5.88
2024-04-23T11:09:13.988Z,6.80
2024-04-23T11:11:51.723Z,6.30
2024-04-23T11:14:18.879Z,6.60
2024-04-23T11:17:02.833Z,6.25
2024-04-23T11:22:11.021Z,7.57
2024-04-23T11:24:45.577Z,6.00
2024-04-23T11:27:16.897Z,5.60
2024-04-23T11:29:46.698Z,6.15
2024-04-23T11:32:20.034Z,6.30
2024-04-23T11:34:48.501Z,6.30
2024-04-23T11:37:25.845Z,5.63
2024-04-23T11:39:57.456Z,6.38
2024-04-23T11:42:27.964Z,5.03
2024-04-23T11:44:57.544Z,5.25
2024-04-23T11:47:30.999Z,5.90
2024-04-23T11:50:02.876Z,5.82
2024-04-23T11:52:32.879Z,5.38
2024-04-23T11:55:00.790Z,5.57
2024-04-23T11:57:30.831Z,6.45
2024-04-23T11:59:58.585Z,6.25
2024-04-23T12:02:31.009Z,6.18
2024-04-23T12:05:00.326Z,6.20
2024-04-23T12:07:30.633Z,6.00
2024-04-23T12:10:05.182Z,5.40
2024-04-23T12:12:37.219Z,5.88
2024-04-23T12:15:06.943Z,5.40
2024-04-23T12:17:41.389Z,5.57
2024-04-23T12:20:10.677Z,5.72
2024-04-23T12:22:46.498Z,5.75
2024-04-23T12:25:15.744Z,5.57
2024-04-23T12:27:48.139Z,6.03
2024-04-23T12:30:20.067Z,5.55
2024-04-23T12:32:56.042Z,5.68
2024-04-23T12:35:23.537Z,6.22
2024-04-23T12:38:01.466Z,5.75
2024-04-23T12:40:28.894Z,5.07
2024-04-23T12:43:01.641Z,5.70
2024-04-23T12:45:28.926Z,5.72
2024-04-23T12:48:02.652Z,5.28
2024-04-23T12:50:31.064Z,5.25
2024-04-23T12:53:01.024Z,5.28
2024-04-23T12:55:29.392Z,4.95
2024-04-23T12:57:59.201Z,5.05
2024-04-23T13:00:26.423Z,4.93
2024-04-23T13:02:56.871Z,5.03
2024-04-23T13:05:26.747Z,5.90
2024-04-23T13:07:56.568Z,6.05
2024-04-23T13:10:23.844Z,4.53
2024-04-23T13:12:54.413Z,5.35
2024-04-23T13:15:21.589Z,5.45
2024-04-23T13:17:52.741Z,5.18
2024-04-23T13:20:19.972Z,4.75
2024-04-23T13:22:52.470Z,4.53
2024-04-23T13:25:19.626Z,5.57
2024-04-23T13:27:49.463Z,5.55
2024-04-23T13:30:16.662Z,5.35
2024-04-23T13:32:46.516Z,5.50
2024-04-23T13:35:13.829Z,5.45
2024-04-23T13:37:43.708Z,5.15
2024-04-23T13:40:13.736Z,5.32
2024-04-23T13:42:43.527Z,5.50
2024-04-23T13:45:11.165Z,5.88
2024-04-23T13:47:42.460Z,5.43
2024-04-23T13:50:11.164Z,5.07
2024-04-23T13:52:43.268Z,4.55
2024-04-23T13:55:10.794Z,5.00
2024-04-23T13:57:43.284Z,4.63
2024-04-23T14:00:10.894Z,6.35
2024-04-23T14:02:40.636Z,4.60
2024-04-23T14:05:07.865Z,4.63
2024-04-23T14:07:41.183Z,5.18
2024-04-23T14:10:08.583Z,5.25
2024-04-23T14:12:39.176Z,5.57
2024-04-23T14:15:09.100Z,4.90
2024-04-23T14:17:38.904Z,4.85
2024-04-23T14:20:07.721Z,5.30
2024-04-23T14:22:38.451Z,5.63
2024-04-23T14:25:06.393Z,5.20
2024-04-23T14:27:36.194Z,5.68
2024-04-23T14:30:03.947Z,5.05
2024-04-23T14:32:36.543Z,4.95
2024-04-23T14:35:09.468Z,5.13
2024-04-23T14:37:39.720Z,4.72
2024-04-23T14:40:08.284Z,4.78
2024-04-23T14:42:38.261Z,4.28
2024-04-23T14:45:06.418Z,4.72
2024-04-23T14:47:40.558Z,4.95
2024-04-23T14:50:12.614Z,4.95
2024-04-23T14:52:42.462Z,4.88
2024-04-23T14:55:09.652Z,5.28
2024-04-23T14:57:39.434Z,5.50
2024-04-23T15:00:08.263Z,4.82
2024-04-23T15:02:40.807Z,5.03
2024-04-23T15:05:08.077Z,4.78
2024-04-23T15:07:37.930Z,4.80
2024-04-23T15:10:10.999Z,5.72
2024-04-23T15:12:38.262Z,5.25
2024-04-23T15:15:09.281Z,4.95
2024-04-23T15:17:39.413Z,5.30
2024-04-23T15:20:10.481Z,4.57
2024-04-23T15:22:37.656Z,5.05
2024-04-23T15:25:07.852Z,4.97
2024-04-23T15:27:35.037Z,5.20
2024-04-23T15:30:05.029Z,5.15
2024-04-23T15:32:32.593Z,4.65
2024-04-23T15:35:05.189Z,4.40
2024-04-23T15:37:32.581Z,4.82
2024-04-23T15:40:03.212Z,4.60
2024-04-23T15:42:33.121Z,4.32
2024-04-23T15:45:02.884Z,4.75
2024-04-23T15:47:30.081Z,5.28
2024-04-23T15:50:00.004Z,4.72
2024-04-23T15:52:29.799Z,4.93
2024-04-23T15:54:59.573Z,4.40
2024-04-23T15:57:26.714Z,4.95
2024-04-23T15:59:56.519Z,5.10
2024-04-23T16:02:25.540Z,5.55
2024-04-23T16:04:55.465Z,5.95
2024-04-23T16:07:22.730Z,5.32
2024-04-23T16:09:55.423Z,6.10
2024-04-23T16:12:22.711Z,7.38
2024-04-23T16:14:52.615Z,5.90
2024-04-23T16:17:19.828Z,8.00
2024-04-23T16:19:49.848Z,6.47
2024-04-23T16:22:16.986Z,6.28
2024-04-23T16:24:46.824Z,5.55
2024-04-23T16:27:16.596Z,5.18
2024-04-23T16:29:46.359Z,5.15
2024-04-23T16:32:13.576Z,4.85
2024-04-23T16:34:43.668Z,4.80
2024-04-23T16:37:10.877Z,4.70
2024-04-23T16:39:40.739Z,4.95
2024-04-23T16:42:09.387Z,4.72
2024-04-23T16:44:41.776Z,4.88
2024-04-23T16:47:08.991Z,4.90
2024-04-23T16:49:38.974Z,4.68
2024-04-23T16:52:06.106Z,5.10
2024-04-23T16:54:35.923Z,5.32
2024-04-23T16:57:03.095Z,5.60
2024-04-23T16:59:32.899Z,5.45
2024-04-23T17:02:02.823Z,4.70
2024-04-23T17:04:34.993Z,4.13
2024-04-23T17:07:02.197Z,4.43
2024-04-23T17:09:32.358Z,5.55
2024-04-23T17:11:59.617Z,4.35
2024-04-23T17:14:29.556Z,4.13
2024-04-23T17:16:56.804Z,4.50
2024-04-23T17:19:29.365Z,4.40
2024-04-23T17:21:56.473Z,4.63
2024-04-23T17:24:26.214Z,4.80
2024-04-23T17:26:53.330Z,4.97
2024-04-23T17:29:23.131Z,4.95
2024-04-23T17:31:50.516Z,5.15
2024-04-23T17:34:20.394Z,4.78
2024-04-23T17:36:50.192Z,4.60
2024-04-23T17:39:20.008Z,3.88
2024-04-23T17:41:47.200Z,3.92
2024-04-23T17:44:17.141Z,3.85
2024-04-23T17:46:44.428Z,4.07
2024-04-23T17:49:14.375Z,4.15
2024-04-23T17:51:41.520Z,4.88
2024-04-23T17:54:13.944Z,4.15
2024-04-23T17:56:41.788Z,4.68
2024-04-23T17:59:11.766Z,4.35
2024-04-23T18:01:39.024Z,4.68
2024-04-23T18:04:08.831Z,5.43
2024-04-23T18:06:36.027Z,5.05
2024-04-23T18:09:06.298Z,5.40
2024-04-23T18:11:37.136Z,5.50
2024-04-23T18:14:07.034Z,5.13
2024-04-23T18:16:35.331Z,5.05
2024-04-23T18:19:05.118Z,4.97
2024-04-23T18:21:32.256Z,4.97
2024-04-23T18:24:01.998Z,5.00
2024-04-23T18:26:29.198Z,5.07
2024-04-23T18:29:01.669Z,5.88
2024-04-23T18:31:28.826Z,4.93
2024-04-23T18:33:59.639Z,5.03
2024-04-23T18:36:26.780Z,4.95
2024-04-23T18:38:58.437Z,4.85
2024-04-23T18:41:25.661Z,4.80
2024-04-23T18:43:55.526Z,5.22
2024-04-23T18:46:25.311Z,4.70
2024-04-23T18:48:55.140Z,4.97
2024-04-23T18:51:22.668Z,4.25
2024-04-23T18:53:52.522Z,4.28
2024-04-23T18:56:20.078Z,4.47
2024-04-23T18:58:51.056Z,5.00
2024-04-23T19:01:19.359Z,5.22
2024-04-23T19:03:51.938Z,4.43
2024-04-23T19:06:20.962Z,5.28
2024-04-23T19:08:51.688Z,5.38
2024-04-23T19:11:26.922Z,4.43
2024-04-23T19:14:07.795Z,3.80
2024-04-23T19:16:43.078Z,5.10
2024-04-23T19:19:15.793Z,4.40
2024-04-23T19:21:43.030Z,4.07
2024-04-23T19:24:12.847Z,3.78
2024-04-23T19:26:41.046Z,4.53
2024-04-23T19:29:11.069Z,4.60
2024-04-23T19:31:38.378Z,4.65
2024-04-23T19:34:08.153Z,4.40
2024-04-23T19:36:37.932Z,4.47
2024-04-23T19:39:07.791Z,5.30
2024-04-23T19:41:34.999Z,4.10
2024-04-23T19:44:04.912Z,4.45
2024-04-23T19:46:33.986Z,3.95
2024-04-23T19:49:03.884Z,3.33
2024-04-23T19:51:31.789Z,3.60
2024-04-23T19:54:05.184Z,4.45
2024-04-23T19:56:47.328Z,3.47
2024-04-23T19:59:17.251Z,3.70
2024-04-23T20:01:47.106Z,4.40
2024-04-23T20:04:17.432Z,3.50
2024-04-23T20:06:47.406Z,4.22
2024-04-23T20:09:21.766Z,3.55
2024-04-23T20:11:52.539Z,3.92
2024-04-23T20:14:22.482Z,3.30
2024-04-23T20:16:52.387Z,3.35
2024-04-23T20:19:22.137Z,3.72
2024-04-23T20:21:51.921Z,3.40
2024-04-23T20:24:24.324Z,3.58
2024-04-23T20:26:51.517Z,3.45
2024-04-23T20:29:21.273Z,3.83
2024-04-23T20:31:51.580Z,3.55
2024-04-23T20:34:21.355Z,3.88
2024-04-23T20:36:51.128Z,3.55
2024-04-23T20:39:20.921Z,3.95
2024-04-23T20:41:53.376Z,3.78
2024-04-23T20:44:23.199Z,4.10
2024-04-23T20:46:50.469Z,4.22
2024-04-23T20:49:20.259Z,3.13
2024-04-23T20:51:50.004Z,3.50
2024-04-23T20:54:20.086Z,3.42
2024-04-23T20:56:49.832Z,3.80
2024-04-23T20:59:22.846Z,3.72
2024-04-23T21:01:52.668Z,4.65
2024-04-23T21:04:22.515Z,3.78
2024-04-23T21:06:52.315Z,3.50
2024-04-23T21:09:22.128Z,4.22
2024-04-23T21:11:51.942Z,3.58
2024-04-23T21:14:24.519Z,4.28
2024-04-23T21:16:54.336Z,3.60
2024-04-23T21:19:26.279Z,3.33
2024-04-23T21:21:56.046Z,3.40
2024-04-23T21:24:25.836Z,3.45
2024-04-23T21:26:55.587Z,4.28
2024-04-23T21:29:28.008Z,3.80
2024-04-23T21:31:57.811Z,3.47
2024-04-23T21:34:27.642Z,3.72
2024-04-23T21:36:54.847Z,3.97
2024-04-23T21:39:24.584Z,3.95
2024-04-23T21:41:57.860Z,2.92
2024-04-23T21:44:30.827Z,3.35
2024-04-23T21:47:00.665Z,3.13
2024-04-23T21:49:30.503Z,3.67
2024-04-23T21:52:16.422Z,3.65
2024-04-23T21:54:50.122Z,3.92
2024-04-23T21:57:19.866Z,4.63
2024-04-23T21:59:52.289Z,5.15
2024-04-23T22:02:22.075Z,4.03
2024-04-23T22:04:52.095Z,4.05
2024-04-23T22:07:19.210Z,4.40
2024-04-23T22:09:48.996Z,3.83
2024-04-23T22:12:18.851Z,3.58
2024-04-23T22:14:48.622Z,4.45
2024-04-23T22:17:21.289Z,4.60
2024-04-23T22:19:51.221Z,4.95
2024-04-23T22:22:21.111Z,4.15
2024-04-23T22:24:50.926Z,2.80
2024-04-23T22:27:20.686Z,3.25
2024-04-23T22:29:50.451Z,3.75
2024-04-23T22:32:23.002Z,3.67
2024-04-23T22:34:52.808Z,3.80
2024-04-23T22:37:22.644Z,3.42
2024-04-23T22:39:52.436Z,2.78
2024-04-23T22:42:22.231Z,3.35
2024-04-23T22:44:51.989Z,4.25
2024-04-23T22:47:25.581Z,3.70
2024-04-23T22:49:55.511Z,4.28
2024-04-23T22:52:25.300Z,3.83
2024-04-23T22:54:55.062Z,4.25
2024-04-23T22:57:24.871Z,4.60
2024-04-23T22:59:54.616Z,3.95
2024-04-23T23:02:27.092Z,3.75
2024-04-23T23:04:56.965Z,4.22
2024-04-23T23:07:26.714Z,3.92
2024-04-23T23:09:56.498Z,3.03
2024-04-23T23:12:26.262Z,3.63
2024-04-23T23:14:56.021Z,4.13
2024-04-23T23:17:28.526Z,3.92
2024-04-23T23:19:58.454Z,4.85
2024-04-23T23:22:28.319Z,4.70
2024-04-23T23:24:58.081Z,4.70
2024-04-23T23:27:27.857Z,4.70
2024-04-23T23:29:57.627Z,5.30
2024-04-23T23:32:30.152Z,3.95
2024-04-23T23:35:00.089Z,4.22
2024-04-23T23:37:29.965Z,3.88
2024-04-23T23:39:59.719Z,4.13
2024-04-23T23:42:29.531Z,3.58
2024-04-23T23:44:59.287Z,3.92
2024-04-23T23:47:31.813Z,4.40
2024-04-23T23:50:02.868Z,4.05
2024-04-23T23:52:32.730Z,4.53
2024-04-23T23:55:02.497Z,4.25
2024-04-23T23:57:32.265Z,3.67
